SLLP/LPB METAR and TAF weather

Enter ICAO airport designator
Station Type Date Time Source
SLLP METAR 2021/03/07 09:00 UTC NOAA

SLLP 070900Z 09004KT 4000E VCFG FEW002 SCT010 BKN200 04/04 Q1037


Station Type Date Time Source
SLLP Decoded METAR 2021/03/07 09:00 UTC NOAA

La Paz / Alto, Bolivia (SLLP) 16-31S 068-11W 4038M
Mar 07, 2021 - 04:00 AM EST / 2021.03.07 0900 UTC
Wind: from the E (090 degrees) at 5 MPH (4 KT):0
Visibility: 2 mile(s):0
Sky conditions: mostly cloudy
Weather: fog in the vicinity
Temperature: 39 F (4 C)
Dew Point: 39 F (4 C)
Relative Humidity: 100%
Pressure (altimeter): 30.62 in. Hg (1037 hPa)
ob: SLLP 070900Z 09004KT 4000E VCFG FEW002 SCT010 BKN200 04/04 Q1037
cycle: 9

Station Type Date Time Source
SLLP TAF 2021/03/07 06:57 UTC NOAA

TAF SLLP 070450Z 0706/0806 04006KT 4000E BCFG SCT010 TX17/0720Z TN01/0710Z
BECMG 0708/0712 9999 NSW
BECMG 0714/0716 13012KT

Example: see airport list